Time,TemperatureF,DewpointF,PressureIn,WindDirection,WindDirectionDegrees,WindSpeedMPH,WindSpeedGustMPH,Humidity,HourlyPrecipIn,Conditions,Clouds,dailyrainin,SoftwareType,DateUTC
2013-12-13 00:02:00,20.7,14.5,30.30,East,90,0.0,0.0,77,0.00,,,0.06,meteohub,2013-12-13 06:02:00,
2013-12-13 00:07:00,20.7,14.5,30.30,East,90,0.0,0.0,77,0.00,,,0.00,meteohub,2013-12-13 06:07:00,
2013-12-13 00:12:00,20.7,14.9,30.30,South,180,0.0,0.0,78,0.00,,,0.00,meteohub,2013-12-13 06:12:00,
2013-12-13 00:17:00,21.0,15.3,30.30,ESE,113,0.0,0.0,78,0.00,,,0.00,meteohub,2013-12-13 06:17:00,
2013-12-13 00:22:00,21.0,15.3,30.29,ESE,113,0.0,0.0,78,0.00,,,0.00,meteohub,2013-12-13 06:22:00,
2013-12-13 00:27:00,21.7,16.0,30.29,East,90,0.0,0.0,78,0.00,,,0.00,meteohub,2013-12-13 06:27:00,
2013-12-13 00:32:00,21.7,16.0,30.29,ENE,68,0.0,0.0,78,0.00,,,0.00,meteohub,2013-12-13 06:32:00,
2013-12-13 00:37:00,21.4,15.6,30.29,East,90,0.0,0.0,78,0.00,,,0.00,meteohub,2013-12-13 06:37:00,
2013-12-13 00:42:00,21.4,15.6,30.27,ENE,68,0.0,0.0,78,0.00,,,0.00,meteohub,2013-12-13 06:42:00,
2013-12-13 00:47:00,21.2,15.1,30.27,SE,135,0.0,0.0,77,0.00,,,0.00,meteohub,2013-12-13 06:47:00,
2013-12-13 00:52:00,21.0,14.9,30.27,ESE,113,0.0,0.0,77,0.00,,,0.00,meteohub,2013-12-13 06:52:00,
2013-12-13 00:57:00,21.0,14.9,30.27,SE,135,0.0,0.0,77,0.00,,,0.00,meteohub,2013-12-13 06:57:00,
2013-12-13 01:03:00,21.4,15.6,30.26,SE,135,0.0,0.0,78,0.00,,,0.00,meteohub,2013-12-13 07:03:00,
2013-12-13 01:08:00,21.7,16.0,30.26,ESE,113,0.0,0.0,78,0.00,,,0.00,meteohub,2013-12-13 07:08:00,
2013-12-13 01:13:00,22.5,16.7,30.25,SE,135,0.0,0.0,78,0.00,,,0.00,meteohub,2013-12-13 07:13:00,
2013-12-13 01:18:00,22.8,17.2,30.25,SE,135,0.0,0.0,79,0.00,,,0.00,meteohub,2013-12-13 07:18:00,
2013-12-13 01:23:00,23.2,17.4,30.25,SW,225,0.0,0.0,78,0.00,,,0.00,meteohub,2013-12-13 07:23:00,
2013-12-13 01:28:00,23.4,17.6,30.25,SE,135,0.0,0.0,78,0.00,,,0.00,meteohub,2013-12-13 07:28:00,
2013-12-13 01:33:00,23.5,17.8,30.25,ESE,113,0.0,0.0,78,0.00,,,0.00,meteohub,2013-12-13 07:33:00,
2013-12-13 01:38:00,23.9,18.0,30.24,South,180,0.0,0.0,78,0.00,,,0.00,meteohub,2013-12-13 07:38:00,
2013-12-13 01:43:00,24.1,18.1,30.23,East,90,0.0,0.0,78,0.00,,,0.00,meteohub,2013-12-13 07:43:00,
2013-12-13 01:48:00,24.3,18.1,30.23,SSE,158,0.0,0.0,77,0.00,,,0.00,meteohub,2013-12-13 07:48:00,
2013-12-13 01:53:00,24.6,18.5,30.23,SE,135,0.0,0.0,77,0.00,,,0.00,meteohub,2013-12-13 07:53:00,
2013-12-13 01:58:00,24.8,18.7,30.23,ESE,113,0.0,0.0,77,0.00,,,0.00,meteohub,2013-12-13 07:58:00,
2013-12-13 02:03:00,25.3,19.2,30.22,SE,135,0.0,2.0,77,0.00,,,0.00,meteohub,2013-12-13 08:03:00,
2013-12-13 02:08:00,25.3,18.9,30.22,WSW,248,0.0,2.0,76,0.00,,,0.00,meteohub,2013-12-13 08:08:00,
2013-12-13 02:13:00,25.3,18.9,30.22,North,0,0.0,0.0,76,0.00,,,0.00,meteohub,2013-12-13 08:13:00,
2013-12-13 02:18:00,25.3,18.9,30.22,SW,225,0.0,0.0,76,0.00,,,0.00,meteohub,2013-12-13 08:18:00,
2013-12-13 02:23:00,25.3,18.9,30.21,SE,135,0.0,0.0,76,0.00,,,0.00,meteohub,2013-12-13 08:23:00,
2013-12-13 02:28:00,25.3,18.5,30.21,SE,135,0.0,0.0,75,0.00,,,0.00,meteohub,2013-12-13 08:28:00,
2013-12-13 02:33:00,25.3,18.5,30.21,SSE,158,0.0,0.0,75,0.00,,,0.00,meteohub,2013-12-13 08:33:00,
2013-12-13 02:38:00,25.7,18.9,30.21,NW,315,0.0,0.0,75,0.00,,,0.00,meteohub,2013-12-13 08:38:00,
2013-12-13 02:43:00,25.5,18.7,30.20,NE,45,0.0,0.0,75,0.00,,,0.00,meteohub,2013-12-13 08:43:00,
2013-12-13 02:48:00,25.3,18.5,30.20,SSW,203,0.0,0.0,75,0.00,,,0.00,meteohub,2013-12-13 08:48:00,
2013-12-13 02:53:00,25.3,18.1,30.20,SSW,203,0.0,0.0,74,0.00,,,0.00,meteohub,2013-12-13 08:53:00,
2013-12-13 02:58:00,25.2,18.0,30.21,ENE,68,0.0,0.0,74,0.00,,,0.00,meteohub,2013-12-13 08:58:00,
2013-12-13 03:03:00,25.3,18.1,30.19,SSW,203,0.0,0.0,74,0.00,,,0.00,meteohub,2013-12-13 09:03:00,
2013-12-13 03:08:00,25.3,18.5,30.19,SE,135,0.0,0.0,75,0.00,,,0.00,meteohub,2013-12-13 09:08:00,
2013-12-13 03:13:00,25.0,18.1,30.20,WSW,248,0.0,0.0,75,0.00,,,0.00,meteohub,2013-12-13 09:13:00,
2013-12-13 03:18:00,25.2,18.3,30.19,South,180,0.0,0.0,75,0.00,,,0.00,meteohub,2013-12-13 09:18:00,
2013-12-13 03:23:00,25.3,18.5,30.19,SE,135,1.0,0.0,75,0.00,,,0.00,meteohub,2013-12-13 09:23:00,
2013-12-13 03:28:00,25.7,18.9,30.19,SE,135,0.0,1.0,75,0.00,,,0.00,meteohub,2013-12-13 09:28:00,
2013-12-13 03:33:00,26.1,19.6,30.19,ENE,68,0.0,1.0,76,0.00,,,0.00,meteohub,2013-12-13 09:33:00,
2013-12-13 03:42:00,26.2,19.4,30.17,SSE,158,0.0,0.0,75,0.00,,,0.00,meteohub,2013-12-13 09:42:00,
2013-12-13 03:47:00,26.2,19.4,30.17,SE,135,0.0,0.0,75,0.00,,,0.00,meteohub,2013-12-13 09:47:00,
2013-12-13 03:52:00,26.4,19.6,30.17,SSW,203,0.0,0.0,75,0.00,,,0.00,meteohub,2013-12-13 09:52:00,
2013-12-13 03:57:00,26.4,19.6,30.17,ENE,68,0.0,0.0,75,0.00,,,0.00,meteohub,2013-12-13 09:57:00,
2013-12-13 04:02:00,26.4,19.6,30.18,SE,135,0.0,0.0,75,0.00,,,0.00,meteohub,2013-12-13 10:02:00,
2013-12-13 04:07:00,26.8,19.9,30.17,ENE,68,0.0,0.0,75,0.00,,,0.00,meteohub,2013-12-13 10:07:00,
2013-12-13 04:12:00,26.8,19.9,30.17,South,180,0.0,0.0,75,0.00,,,0.00,meteohub,2013-12-13 10:12:00,
2013-12-13 04:17:00,26.8,19.9,30.17,SE,135,0.0,0.0,75,0.00,,,0.00,meteohub,2013-12-13 10:17:00,
2013-12-13 04:22:00,26.8,19.9,30.16,SE,135,0.0,0.0,75,0.00,,,0.00,meteohub,2013-12-13 10:22:00,
2013-12-13 04:27:00,27.1,20.3,30.16,SSW,203,0.0,0.0,75,0.00,,,0.00,meteohub,2013-12-13 10:27:00,
2013-12-13 04:32:00,27.1,20.3,30.16,South,180,0.0,0.0,75,0.00,,,0.00,meteohub,2013-12-13 10:32:00,
2013-12-13 04:37:00,27.0,20.1,30.16,SE,135,0.0,0.0,75,0.00,,,0.00,meteohub,2013-12-13 10:37:00,
2013-12-13 04:42:00,27.0,20.1,30.14,South,180,0.0,0.0,75,0.00,,,0.00,meteohub,2013-12-13 10:42:00,
2013-12-13 04:47:00,27.1,20.3,30.14,SE,135,0.0,0.0,75,0.00,,,0.00,meteohub,2013-12-13 10:47:00,
2013-12-13 04:52:00,27.1,20.3,30.14,SE,135,0.0,0.0,75,0.00,,,0.00,meteohub,2013-12-13 10:52:00,
2013-12-13 04:57:00,27.5,20.7,30.14,SSE,158,0.0,0.0,75,0.00,,,0.00,meteohub,2013-12-13 10:57:00,
2013-12-13 05:02:00,27.5,20.7,30.12,ESE,113,0.0,0.0,75,0.00,,,0.00,meteohub,2013-12-13 11:02:00,
2013-12-13 05:08:00,27.7,20.8,30.12,SE,135,0.0,0.0,75,0.00,,,0.00,meteohub,2013-12-13 11:08:00,
2013-12-13 05:13:00,27.9,21.0,30.12,SSW,203,0.0,0.0,75,0.00,,,0.00,meteohub,2013-12-13 11:13:00,
2013-12-13 05:17:00,28.2,21.4,30.12,SE,135,0.0,0.0,75,0.00,,,0.00,meteohub,2013-12-13 11:17:00,
2013-12-13 05:22:00,28.0,21.2,30.14,SW,225,0.0,0.0,75,0.00,,,0.00,meteohub,2013-12-13 11:22:00,
2013-12-13 05:27:00,28.6,21.7,30.14,SE,135,0.0,0.0,75,0.00,,,0.00,meteohub,2013-12-13 11:27:00,
2013-12-13 05:33:00,28.4,21.6,30.14,SE,135,0.0,0.0,75,0.00,,,0.00,meteohub,2013-12-13 11:33:00,
2013-12-13 05:37:00,28.6,21.7,30.14,SE,135,0.0,0.0,75,0.00,,,0.00,meteohub,2013-12-13 11:37:00,
2013-12-13 05:43:00,28.9,22.1,30.14,SE,135,0.0,0.0,75,0.00,,,0.00,meteohub,2013-12-13 11:43:00,
2013-12-13 05:48:00,28.9,22.1,30.14,ESE,113,0.0,0.0,75,0.00,,,0.00,meteohub,2013-12-13 11:48:00,
2013-12-13 05:53:00,28.9,21.7,30.14,SSW,203,0.0,0.0,74,0.00,,,0.00,meteohub,2013-12-13 11:53:00,
2013-12-13 05:58:00,29.1,22.3,30.14,SE,135,0.0,0.0,75,0.00,,,0.00,meteohub,2013-12-13 11:58:00,
2013-12-13 06:03:00,29.3,22.6,30.15,South,180,1.0,0.0,76,0.00,,,0.00,meteohub,2013-12-13 12:03:00,
2013-12-13 06:08:00,29.7,23.0,30.15,South,180,0.0,1.0,76,0.00,,,0.00,meteohub,2013-12-13 12:08:00,
2013-12-13 06:13:00,29.7,23.4,30.15,South,180,0.0,1.0,77,0.00,,,0.00,meteohub,2013-12-13 12:13:00,
2013-12-13 06:18:00,29.7,23.7,30.15,South,180,0.0,1.0,78,0.00,,,0.00,meteohub,2013-12-13 12:18:00,
2013-12-13 06:23:00,30.0,24.3,30.16,South,180,0.0,0.0,79,0.00,,,0.00,meteohub,2013-12-13 12:23:00,
2013-12-13 06:24:00,30.0,24.3,30.16,South,180,0.0,0.0,79,0.00,,,0.00,meteohub,2013-12-13 12:24:00,
2013-12-13 06:29:00,30.4,24.6,30.15,South,180,0.0,0.0,79,0.00,,,0.00,meteohub,2013-12-13 12:29:00,
2013-12-13 06:34:00,30.4,25.0,30.15,South,180,0.0,0.0,80,0.00,,,0.00,meteohub,2013-12-13 12:34:00,
2013-12-13 06:39:00,30.4,25.0,30.15,South,180,0.0,0.0,80,0.00,,,0.00,meteohub,2013-12-13 12:39:00,
2013-12-13 06:44:00,30.7,25.5,30.15,South,180,0.0,0.0,81,0.00,,,0.00,meteohub,2013-12-13 12:44:00,
2013-12-13 06:49:00,30.7,25.5,30.15,South,180,0.0,0.0,81,0.00,,,0.00,meteohub,2013-12-13 12:49:00,
2013-12-13 06:54:00,31.1,25.9,30.15,South,180,0.0,0.0,81,0.00,,,0.00,meteohub,2013-12-13 12:54:00,
2013-12-13 06:59:00,30.9,25.7,30.15,South,180,0.0,0.0,81,0.00,,,0.00,meteohub,2013-12-13 12:59:00,
2013-12-13 07:04:00,31.1,25.9,30.14,South,180,0.0,0.0,81,0.00,,,0.00,meteohub,2013-12-13 13:04:00,
2013-12-13 07:09:00,31.1,26.2,30.14,South,180,0.0,0.0,82,0.00,,,0.00,meteohub,2013-12-13 13:09:00,
2013-12-13 07:14:00,31.1,26.2,30.14,South,180,0.0,0.0,82,0.00,,,0.00,meteohub,2013-12-13 13:14:00,
2013-12-13 07:19:00,31.1,26.2,30.14,South,180,0.0,0.0,82,0.00,,,0.00,meteohub,2013-12-13 13:19:00,
2013-12-13 07:24:00,31.3,26.4,30.14,South,180,0.0,0.0,82,0.00,,,0.00,meteohub,2013-12-13 13:24:00,
2013-12-13 07:29:00,31.3,26.8,30.14,South,180,0.0,0.0,83,0.00,,,0.00,meteohub,2013-12-13 13:29:00,
2013-12-13 07:34:00,31.5,27.0,30.14,South,180,0.0,0.0,83,0.00,,,0.00,meteohub,2013-12-13 13:34:00,
2013-12-13 07:39:00,31.3,26.8,30.14,South,180,0.0,0.0,83,0.00,,,0.00,meteohub,2013-12-13 13:39:00,
2013-12-13 07:44:00,31.3,26.8,30.14,South,180,0.0,0.0,83,0.00,,,0.00,meteohub,2013-12-13 13:44:00,
2013-12-13 07:49:00,31.3,26.8,30.14,South,180,0.0,0.0,83,0.00,,,0.00,meteohub,2013-12-13 13:49:00,
2013-12-13 07:54:00,31.3,26.8,30.14,South,180,0.0,0.0,83,0.00,,,0.00,meteohub,2013-12-13 13:54:00,
2013-12-13 07:59:00,31.3,26.8,30.13,South,180,0.0,0.0,83,0.00,,,0.00,meteohub,2013-12-13 13:59:00,
2013-12-13 08:04:00,31.5,27.0,30.13,South,180,0.0,0.0,83,0.00,,,0.00,meteohub,2013-12-13 14:04:00,
2013-12-13 08:09:00,31.5,27.1,30.13,South,180,0.0,0.0,84,0.00,,,0.00,meteohub,2013-12-13 14:09:00,
2013-12-13 08:14:00,31.5,27.0,30.13,South,180,0.0,0.0,83,0.00,,,0.00,meteohub,2013-12-13 14:14:00,
2013-12-13 08:19:00,31.5,27.1,30.13,South,180,0.0,0.0,84,0.00,,,0.00,meteohub,2013-12-13 14:19:00,
2013-12-13 08:24:00,31.5,27.1,30.11,South,180,0.0,0.0,84,0.00,,,0.00,meteohub,2013-12-13 14:24:00,
2013-12-13 08:29:00,31.8,27.5,30.11,South,180,0.0,0.0,84,0.00,,,0.00,meteohub,2013-12-13 14:29:00,
2013-12-13 08:34:00,31.6,27.3,30.11,South,180,0.0,0.0,84,0.00,,,0.00,meteohub,2013-12-13 14:34:00,
2013-12-13 08:39:00,31.8,27.5,30.10,South,180,0.0,0.0,84,0.00,,,0.00,meteohub,2013-12-13 14:39:00,
2013-12-13 08:44:00,31.8,27.5,30.10,South,180,0.0,0.0,84,0.00,,,0.00,meteohub,2013-12-13 14:44:00,
2013-12-13 08:49:00,32.0,27.7,30.10,South,180,0.0,0.0,84,0.00,,,0.00,meteohub,2013-12-13 14:49:00,
2013-12-13 08:54:00,32.2,27.9,30.10,South,180,0.0,0.0,84,0.00,,,0.00,meteohub,2013-12-13 14:54:00,
2013-12-13 08:59:00,32.2,28.2,30.10,South,180,0.0,0.0,85,0.00,,,0.00,meteohub,2013-12-13 14:59:00,
2013-12-13 09:04:00,32.4,28.4,30.09,South,180,0.0,0.0,85,0.00,,,0.00,meteohub,2013-12-13 15:04:00,
2013-12-13 09:09:00,32.4,28.4,30.09,South,180,0.0,0.0,85,0.00,,,0.00,meteohub,2013-12-13 15:09:00,
2013-12-13 09:15:00,32.5,28.6,30.09,South,180,0.0,0.0,85,0.00,,,0.00,meteohub,2013-12-13 15:15:00,
2013-12-13 09:20:00,32.4,28.4,30.10,South,180,0.0,0.0,85,0.00,,,0.00,meteohub,2013-12-13 15:20:00,
2013-12-13 09:25:00,32.5,28.6,30.10,South,180,0.0,0.0,85,0.00,,,0.00,meteohub,2013-12-13 15:25:00,
2013-12-13 09:30:00,32.5,28.6,30.10,South,180,0.0,0.0,85,0.00,,,0.00,meteohub,2013-12-13 15:30:00,
2013-12-13 09:35:00,32.5,28.6,30.10,South,180,0.0,0.0,85,0.00,,,0.00,meteohub,2013-12-13 15:35:00,
2013-12-13 09:40:00,32.7,28.8,30.09,South,180,0.0,0.0,85,0.00,,,0.00,meteohub,2013-12-13 15:40:00,
2013-12-13 09:45:00,32.7,28.9,30.09,South,180,0.0,0.0,86,0.00,,,0.00,meteohub,2013-12-13 15:45:00,
2013-12-13 09:50:00,32.9,29.1,30.09,South,180,0.0,0.0,86,0.00,,,0.00,meteohub,2013-12-13 15:50:00,
2013-12-13 09:55:00,32.9,29.1,30.09,South,180,0.0,0.0,86,0.00,,,0.00,meteohub,2013-12-13 15:55:00,
2013-12-13 10:00:00,32.7,28.9,30.10,South,180,0.0,0.0,86,0.00,,,0.00,meteohub,2013-12-13 16:00:00,
2013-12-13 10:05:00,32.9,29.5,30.10,South,180,0.0,0.0,87,0.00,,,0.00,meteohub,2013-12-13 16:05:00,
2013-12-13 10:10:00,32.9,29.5,30.10,South,180,0.0,0.0,87,0.00,,,0.00,meteohub,2013-12-13 16:10:00,
2013-12-13 10:15:00,32.9,29.5,30.10,South,180,0.0,0.0,87,0.00,,,0.00,meteohub,2013-12-13 16:15:00,
2013-12-13 10:20:00,32.7,29.3,30.07,South,180,0.0,0.0,87,0.00,,,0.00,meteohub,2013-12-13 16:20:00,
2013-12-13 10:25:00,32.9,29.5,30.07,South,180,0.0,0.0,87,0.00,,,0.00,meteohub,2013-12-13 16:25:00,
2013-12-13 10:30:00,32.9,29.5,30.07,South,180,0.0,0.0,87,0.00,,,0.00,meteohub,2013-12-13 16:30:00,
2013-12-13 10:35:00,32.9,29.7,30.07,South,180,0.0,0.0,88,0.00,,,0.00,meteohub,2013-12-13 16:35:00,
2013-12-13 10:40:00,33.1,29.8,30.07,South,180,0.0,0.0,88,0.00,,,0.00,meteohub,2013-12-13 16:40:00,
2013-12-13 10:45:00,32.9,29.7,30.08,South,180,0.0,0.0,88,0.00,,,0.00,meteohub,2013-12-13 16:45:00,
2013-12-13 10:50:00,33.3,30.0,30.07,South,180,0.0,0.0,88,0.00,,,0.00,meteohub,2013-12-13 16:50:00,
2013-12-13 10:55:00,32.9,29.7,30.08,South,180,0.0,0.0,88,0.00,,,0.00,meteohub,2013-12-13 16:55:00,
2013-12-13 11:00:00,32.9,29.7,30.07,South,180,0.0,0.0,88,0.00,,,0.00,meteohub,2013-12-13 17:00:00,
2013-12-13 11:05:00,33.3,30.0,30.07,South,180,0.0,0.0,88,0.00,,,0.00,meteohub,2013-12-13 17:05:00,
2013-12-13 11:10:00,33.3,30.4,30.07,South,180,0.0,0.0,89,0.00,,,0.00,meteohub,2013-12-13 17:10:00,
2013-12-13 11:15:00,33.3,30.4,30.07,South,180,0.0,0.0,89,0.03,,,0.03,meteohub,2013-12-13 17:15:00,
2013-12-13 11:20:00,33.3,30.4,30.04,South,180,0.0,0.0,89,0.13,,,0.13,meteohub,2013-12-13 17:20:00,
2013-12-13 11:25:00,33.1,30.2,30.04,South,180,0.0,0.0,89,0.33,,,0.33,meteohub,2013-12-13 17:25:00,
2013-12-13 11:30:00,33.3,30.4,30.04,South,180,0.0,0.0,89,0.35,,,0.35,meteohub,2013-12-13 17:30:00,
2013-12-13 11:35:00,33.3,30.4,30.04,South,180,0.0,0.0,89,0.35,,,0.35,meteohub,2013-12-13 17:35:00,
2013-12-13 11:40:00,33.3,30.4,29.99,South,180,0.0,0.0,89,0.35,,,0.35,meteohub,2013-12-13 17:40:00,
2013-12-13 11:45:00,33.3,30.4,29.99,South,180,0.0,0.0,89,0.38,,,0.38,meteohub,2013-12-13 17:45:00,
2013-12-13 11:50:00,33.4,30.6,29.99,South,180,0.0,0.0,89,0.38,,,0.38,meteohub,2013-12-13 17:50:00,
2013-12-13 11:55:00,33.6,30.9,29.99,South,180,0.0,0.0,90,0.41,,,0.41,meteohub,2013-12-13 17:55:00,
2013-12-13 12:00:00,33.4,30.6,29.97,South,180,0.0,0.0,89,0.41,,,0.41,meteohub,2013-12-13 18:00:00,
2013-12-13 12:05:00,33.4,30.6,29.97,South,180,0.0,0.0,89,0.41,,,0.41,meteohub,2013-12-13 18:05:00,
2013-12-13 12:10:00,33.4,30.6,29.97,South,180,0.0,0.0,89,0.38,,,0.41,meteohub,2013-12-13 18:10:00,
2013-12-13 12:15:00,33.4,30.6,29.97,South,180,0.0,0.0,89,0.27,,,0.41,meteohub,2013-12-13 18:15:00,
2013-12-13 12:20:00,33.4,30.6,29.98,South,180,0.0,0.0,89,0.08,,,0.41,meteohub,2013-12-13 18:20:00,
2013-12-13 12:25:00,33.4,30.6,29.98,South,180,0.0,0.0,89,0.05,,,0.41,meteohub,2013-12-13 18:25:00,
2013-12-13 12:31:00,33.4,30.6,29.98,South,180,0.0,0.0,89,0.05,,,0.41,meteohub,2013-12-13 18:31:00,
2013-12-13 12:36:00,33.4,30.6,29.98,South,180,0.0,0.0,89,0.05,,,0.41,meteohub,2013-12-13 18:36:00,
2013-12-13 12:41:00,33.6,30.9,29.94,South,180,0.0,0.0,90,0.02,,,0.41,meteohub,2013-12-13 18:41:00,
2013-12-13 12:46:00,33.4,30.6,29.94,South,180,0.0,0.0,89,0.02,,,0.41,meteohub,2013-12-13 18:46:00,
2013-12-13 12:51:00,33.6,30.9,29.94,ESE,113,0.0,0.0,90,0.02,,,0.41,meteohub,2013-12-13 18:51:00,
2013-12-13 12:56:00,33.4,30.6,29.94,SSE,158,0.0,0.0,89,0.00,,,0.41,meteohub,2013-12-13 18:56:00,
2013-12-13 13:01:00,33.8,31.1,29.95,SSE,158,0.0,2.0,90,0.00,,,0.41,meteohub,2013-12-13 19:01:00,
2013-12-13 13:06:00,34.0,31.3,29.95,ESE,113,2.0,2.0,90,0.00,,,0.41,meteohub,2013-12-13 19:06:00,
2013-12-13 13:11:00,34.0,31.3,29.95,SSW,203,0.0,2.0,90,0.00,,,0.41,meteohub,2013-12-13 19:11:00,
2013-12-13 13:16:00,34.0,31.3,29.95,SSE,158,0.0,2.0,90,0.00,,,0.41,meteohub,2013-12-13 19:16:00,
2013-12-13 13:21:00,33.8,30.9,29.97,NE,45,0.0,2.0,89,0.00,,,0.41,meteohub,2013-12-13 19:21:00,
2013-12-13 13:26:00,33.8,30.9,29.97,SE,135,0.0,2.0,89,0.00,,,0.41,meteohub,2013-12-13 19:26:00,
2013-12-13 13:31:00,33.8,30.9,29.97,SE,135,2.0,0.0,89,0.00,,,0.41,meteohub,2013-12-13 19:31:00,
2013-12-13 13:36:00,34.0,31.1,29.97,SE,135,2.0,2.0,89,0.00,,,0.41,meteohub,2013-12-13 19:36:00,
2013-12-13 13:41:00,33.8,30.9,29.93,SE,135,5.0,5.0,89,0.00,,,0.41,meteohub,2013-12-13 19:41:00,
2013-12-13 13:46:00,34.0,31.1,29.93,SSE,158,0.0,5.0,89,0.00,,,0.41,meteohub,2013-12-13 19:46:00,
2013-12-13 13:51:00,33.6,30.4,29.93,SE,135,2.0,5.0,88,0.00,,,0.41,meteohub,2013-12-13 19:51:00,
2013-12-13 13:56:00,33.6,30.4,29.93,SE,135,2.0,5.0,88,0.00,,,0.41,meteohub,2013-12-13 19:56:00,
2013-12-13 14:01:00,33.6,30.4,29.93,SSE,158,0.0,3.0,88,0.00,,,0.41,meteohub,2013-12-13 20:01:00,
2013-12-13 14:06:00,33.6,30.4,29.93,ESE,113,4.0,4.0,88,0.00,,,0.41,meteohub,2013-12-13 20:06:00,
2013-12-13 14:11:00,33.4,30.2,29.93,South,180,0.0,4.0,88,0.00,,,0.41,meteohub,2013-12-13 20:11:00,
2013-12-13 14:16:00,33.4,30.2,29.93,ESE,113,0.0,4.0,88,0.00,,,0.41,meteohub,2013-12-13 20:16:00,
2013-12-13 14:21:00,33.6,30.4,29.91,SSE,158,2.0,4.0,88,0.00,,,0.41,meteohub,2013-12-13 20:21:00,
2013-12-13 14:26:00,33.6,30.4,29.91,SE,135,0.0,2.0,88,0.00,,,0.41,meteohub,2013-12-13 20:26:00,
2013-12-13 14:31:00,33.6,30.4,29.91,SE,135,2.0,2.0,88,0.00,,,0.41,meteohub,2013-12-13 20:31:00,
2013-12-13 14:36:00,33.6,30.4,29.91,SE,135,4.0,4.0,88,0.00,,,0.41,meteohub,2013-12-13 20:36:00,
2013-12-13 14:41:00,33.8,30.6,29.93,SE,135,0.0,4.0,88,0.00,,,0.41,meteohub,2013-12-13 20:41:00,
2013-12-13 14:46:00,33.6,30.4,29.94,SE,135,5.0,5.0,88,0.00,,,0.41,meteohub,2013-12-13 20:46:00,
2013-12-13 14:51:00,33.6,30.4,29.94,ESE,113,4.0,5.0,88,0.00,,,0.41,meteohub,2013-12-13 20:51:00,
2013-12-13 14:56:00,34.0,30.7,29.93,ESE,113,2.0,5.0,88,0.00,,,0.41,meteohub,2013-12-13 20:56:00,
2013-12-13 15:01:00,33.6,30.2,29.93,SE,135,0.0,5.0,87,0.00,,,0.41,meteohub,2013-12-13 21:01:00,
2013-12-13 15:06:00,33.6,30.2,29.93,East,90,0.0,4.0,87,0.00,,,0.41,meteohub,2013-12-13 21:06:00,
2013-12-13 15:11:00,33.6,30.2,29.93,SSE,158,0.0,2.0,87,0.00,,,0.41,meteohub,2013-12-13 21:11:00,
2013-12-13 15:17:00,33.6,30.2,29.93,SE,135,2.0,0.0,87,0.00,,,0.41,meteohub,2013-12-13 21:17:00,
2013-12-13 15:21:00,34.0,30.7,29.93,WSW,248,0.0,2.0,88,0.00,,,0.41,meteohub,2013-12-13 21:21:00,
2013-12-13 15:26:00,33.8,30.6,29.93,ESE,113,0.0,3.0,88,0.00,,,0.41,meteohub,2013-12-13 21:26:00,
2013-12-13 15:32:00,34.0,30.7,29.93,SE,135,0.0,3.0,88,0.00,,,0.41,meteohub,2013-12-13 21:32:00,
2013-12-13 15:36:00,34.0,30.6,29.93,West,270,0.0,3.0,87,0.00,,,0.41,meteohub,2013-12-13 21:36:00,
2013-12-13 15:42:00,34.0,30.6,29.91,SE,135,0.0,0.0,87,0.00,,,0.41,meteohub,2013-12-13 21:42:00,
2013-12-13 15:47:00,33.8,30.4,29.91,SE,135,0.0,4.0,87,0.00,,,0.41,meteohub,2013-12-13 21:47:00,
2013-12-13 15:52:00,34.0,30.6,29.91,ESE,113,3.0,4.0,87,0.00,,,0.41,meteohub,2013-12-13 21:52:00,
2013-12-13 15:57:00,34.0,30.6,29.91,SE,135,3.0,3.0,87,0.00,,,0.41,meteohub,2013-12-13 21:57:00,
2013-12-13 16:02:00,33.6,30.2,29.90,SE,135,3.0,5.0,87,0.00,,,0.41,meteohub,2013-12-13 22:02:00,
2013-12-13 16:07:00,33.8,30.4,29.90,SE,135,1.0,5.0,87,0.00,,,0.41,meteohub,2013-12-13 22:07:00,
2013-12-13 16:12:00,33.6,30.2,29.90,South,180,0.0,3.0,87,0.00,,,0.41,meteohub,2013-12-13 22:12:00,
2013-12-13 16:17:00,33.6,30.2,29.90,SE,135,0.0,7.0,87,0.00,,,0.41,meteohub,2013-12-13 22:17:00,
2013-12-13 16:22:00,33.6,30.2,29.91,SE,135,0.0,7.0,87,0.00,,,0.41,meteohub,2013-12-13 22:22:00,
2013-12-13 16:27:00,33.4,30.0,29.91,SE,135,0.0,7.0,87,0.00,,,0.41,meteohub,2013-12-13 22:27:00,
2013-12-13 16:32:00,33.4,30.0,29.91,East,90,4.0,4.0,87,0.00,,,0.41,meteohub,2013-12-13 22:32:00,
2013-12-13 16:37:00,33.4,30.2,29.91,SE,135,7.0,7.0,88,0.00,,,0.41,meteohub,2013-12-13 22:37:00,
2013-12-13 16:42:00,33.4,30.2,29.90,SSE,158,4.0,7.0,88,0.00,,,0.41,meteohub,2013-12-13 22:42:00,
2013-12-13 16:47:00,33.4,30.2,29.90,SE,135,1.0,7.0,88,0.00,,,0.41,meteohub,2013-12-13 22:47:00,
2013-12-13 16:52:00,33.3,30.4,29.90,ESE,113,5.0,7.0,89,0.00,,,0.41,meteohub,2013-12-13 22:52:00,
2013-12-13 16:57:00,33.3,30.4,29.90,WNW,293,0.0,5.0,89,0.00,,,0.41,meteohub,2013-12-13 22:57:00,
2013-12-13 17:02:00,33.3,30.4,29.89,SSE,158,0.0,5.0,89,0.00,,,0.41,meteohub,2013-12-13 23:02:00,
2013-12-13 17:07:00,33.1,30.2,29.89,SE,135,5.0,5.0,89,0.00,,,0.41,meteohub,2013-12-13 23:07:00,
2013-12-13 17:12:00,33.1,30.2,29.89,SSE,158,0.0,5.0,89,0.00,,,0.41,meteohub,2013-12-13 23:12:00,
2013-12-13 17:17:00,32.9,30.0,29.89,SE,135,5.0,5.0,89,0.00,,,0.41,meteohub,2013-12-13 23:17:00,
2013-12-13 17:22:00,32.9,30.0,29.88,ESE,113,0.0,5.0,89,0.00,,,0.41,meteohub,2013-12-13 23:22:00,
2013-12-13 17:27:00,32.9,30.4,29.88,SE,135,2.0,7.0,90,0.00,,,0.41,meteohub,2013-12-13 23:27:00,
2013-12-13 17:32:00,32.9,30.4,29.88,South,180,6.0,7.0,90,0.00,,,0.41,meteohub,2013-12-13 23:32:00,
2013-12-13 17:37:00,32.9,30.4,29.88,ESE,113,0.0,7.0,90,0.00,,,0.41,meteohub,2013-12-13 23:37:00,
2013-12-13 17:42:00,33.3,30.6,29.88,SE,135,0.0,6.0,90,0.00,,,0.41,meteohub,2013-12-13 23:42:00,
2013-12-13 17:47:00,33.3,30.6,29.88,SE,135,0.0,6.0,90,0.00,,,0.41,meteohub,2013-12-13 23:47:00,
2013-12-13 17:52:00,33.3,30.9,29.88,ESE,113,0.0,2.0,91,0.00,,,0.41,meteohub,2013-12-13 23:52:00,
2013-12-13 17:57:00,33.1,30.7,29.88,SE,135,0.0,2.0,91,0.03,,,0.43,meteohub,2013-12-13 23:57:00,
2013-12-13 18:02:00,33.3,30.9,29.88,SE,135,4.0,4.0,91,0.03,,,0.43,meteohub,2013-12-14 00:02:00,
2013-12-13 18:07:00,33.3,30.9,29.88,SE,135,4.0,4.0,91,0.03,,,0.43,meteohub,2013-12-14 00:07:00,
2013-12-13 18:12:00,33.4,31.1,29.88,WSW,248,3.0,4.0,91,0.03,,,0.43,meteohub,2013-12-14 00:12:00,
2013-12-13 18:17:00,33.4,31.1,29.88,SE,135,2.0,4.0,91,0.03,,,0.43,meteohub,2013-12-14 00:17:00,
2013-12-13 18:22:00,33.4,31.1,29.88,SE,135,1.0,4.0,91,0.03,,,0.43,meteohub,2013-12-14 00:22:00,
2013-12-13 18:27:00,33.6,31.5,29.88,ESE,113,2.0,5.0,92,0.03,,,0.43,meteohub,2013-12-14 00:27:00,
2013-12-13 18:32:00,33.6,31.5,29.88,ENE,68,3.0,5.0,92,0.03,,,0.43,meteohub,2013-12-14 00:32:00,
2013-12-13 18:37:00,33.6,31.5,29.88,SE,135,0.0,3.0,92,0.03,,,0.43,meteohub,2013-12-14 00:37:00,
2013-12-13 18:42:00,33.4,31.1,29.89,SE,135,4.0,5.0,91,0.03,,,0.43,meteohub,2013-12-14 00:42:00,
2013-12-13 18:47:00,33.4,31.1,29.89,SE,135,0.0,5.0,91,0.03,,,0.43,meteohub,2013-12-14 00:47:00,
2013-12-13 18:52:00,33.4,31.1,29.89,SSE,158,0.0,4.0,91,0.00,,,0.43,meteohub,2013-12-14 00:52:00,
2013-12-13 18:57:00,33.4,31.1,29.89,ESE,113,0.0,4.0,91,0.00,,,0.43,meteohub,2013-12-14 00:57:00,
2013-12-13 19:02:00,33.4,31.1,29.89,SSE,158,2.0,2.0,91,0.00,,,0.43,meteohub,2013-12-14 01:02:00,
2013-12-13 19:07:00,33.4,31.1,29.89,SE,135,0.0,2.0,91,0.00,,,0.43,meteohub,2013-12-14 01:07:00,
2013-12-13 19:12:00,33.4,31.1,29.89,SSE,158,1.0,2.0,91,0.00,,,0.43,meteohub,2013-12-14 01:12:00,
2013-12-13 19:14:00,33.4,31.1,29.89,ESE,113,0.0,2.0,91,0.00,,,0.43,meteohub,2013-12-14 01:14:00,
2013-12-13 19:19:00,33.4,31.1,29.89,SE,135,1.0,2.0,91,0.00,,,0.43,meteohub,2013-12-14 01:19:00,
2013-12-13 19:24:00,33.4,31.1,29.89,SE,135,0.0,4.0,91,0.00,,,0.43,meteohub,2013-12-14 01:24:00,
2013-12-13 19:29:00,33.4,31.1,29.89,SE,135,1.0,4.0,91,0.00,,,0.43,meteohub,2013-12-14 01:29:00,
2013-12-13 19:34:00,33.4,31.1,29.89,SSW,203,0.0,4.0,91,0.00,,,0.43,meteohub,2013-12-14 01:34:00,
2013-12-13 19:39:00,33.4,31.1,29.89,ESE,113,3.0,4.0,91,0.00,,,0.43,meteohub,2013-12-14 01:39:00,
2013-12-13 19:44:00,33.4,31.1,29.89,SE,135,0.0,3.0,91,0.00,,,0.43,meteohub,2013-12-14 01:44:00,
2013-12-13 19:49:00,33.4,31.1,29.89,ENE,68,3.0,3.0,91,0.00,,,0.43,meteohub,2013-12-14 01:49:00,
2013-12-13 19:54:00,33.4,31.1,29.89,SSE,158,0.0,3.0,91,0.00,,,0.43,meteohub,2013-12-14 01:54:00,
2013-12-13 19:59:00,33.4,31.1,29.89,NW,315,0.0,3.0,91,0.00,,,0.43,meteohub,2013-12-14 01:59:00,
2013-12-13 20:04:00,33.4,31.1,29.89,North,0,0.0,3.0,91,0.00,,,0.43,meteohub,2013-12-14 02:04:00,
2013-12-13 20:09:00,33.4,31.1,29.89,ESE,113,0.0,3.0,91,0.00,,,0.43,meteohub,2013-12-14 02:09:00,
2013-12-13 20:14:00,33.4,31.1,29.89,SE,135,0.0,3.0,91,0.00,,,0.43,meteohub,2013-12-14 02:14:00,
2013-12-13 20:19:00,33.4,31.1,29.89,ESE,113,0.0,3.0,91,0.00,,,0.43,meteohub,2013-12-14 02:19:00,
2013-12-13 20:24:00,33.4,31.1,29.89,SE,135,2.0,3.0,91,0.00,,,0.43,meteohub,2013-12-14 02:24:00,
2013-12-13 20:29:00,33.4,31.1,29.89,SE,135,2.0,0.0,91,0.00,,,0.43,meteohub,2013-12-14 02:29:00,
2013-12-13 20:34:00,33.4,31.1,29.89,ESE,113,0.0,2.0,91,0.00,,,0.43,meteohub,2013-12-14 02:34:00,
2013-12-13 20:39:00,33.4,31.1,29.90,South,180,0.0,2.0,91,0.00,,,0.43,meteohub,2013-12-14 02:39:00,
2013-12-13 20:44:00,33.6,31.5,29.90,ESE,113,0.0,2.0,92,0.00,,,0.43,meteohub,2013-12-14 02:44:00,
2013-12-13 20:49:00,33.4,31.1,29.90,East,90,3.0,3.0,91,0.00,,,0.43,meteohub,2013-12-14 02:49:00,
2013-12-13 20:54:00,33.4,31.1,29.90,SSE,158,0.0,3.0,91,0.00,,,0.43,meteohub,2013-12-14 02:54:00,
2013-12-13 20:59:00,33.6,31.5,29.90,SE,135,0.0,3.0,92,0.00,,,0.43,meteohub,2013-12-14 02:59:00,
2013-12-13 21:04:00,33.4,31.1,29.89,ESE,113,3.0,3.0,91,0.00,,,0.43,meteohub,2013-12-14 03:04:00,
2013-12-13 21:09:00,33.6,31.5,29.89,ESE,113,0.0,3.0,92,0.00,,,0.43,meteohub,2013-12-14 03:09:00,
2013-12-13 21:14:00,33.6,31.5,29.89,SE,135,0.0,3.0,92,0.00,,,0.43,meteohub,2013-12-14 03:14:00,
2013-12-13 21:19:00,33.4,31.3,29.89,SE,135,0.0,3.0,92,0.00,,,0.43,meteohub,2013-12-14 03:19:00,
2013-12-13 21:24:00,33.6,31.5,29.89,SE,135,0.0,2.0,92,0.00,,,0.43,meteohub,2013-12-14 03:24:00,
2013-12-13 21:30:00,33.4,31.3,29.89,SE,135,2.0,4.0,92,0.00,,,0.43,meteohub,2013-12-14 03:30:00,
2013-12-13 21:34:00,33.6,31.5,29.89,ESE,113,0.0,4.0,92,0.03,,,0.46,meteohub,2013-12-14 03:34:00,
2013-12-13 21:40:00,33.6,31.5,29.89,ESE,113,0.0,2.0,92,0.03,,,0.46,meteohub,2013-12-14 03:40:00,
2013-12-13 21:45:00,33.4,31.3,29.88,ESE,113,0.0,2.0,92,0.03,,,0.46,meteohub,2013-12-14 03:45:00,
2013-12-13 21:50:00,33.4,31.3,29.88,SE,135,0.0,2.0,92,0.03,,,0.46,meteohub,2013-12-14 03:50:00,
2013-12-13 21:55:00,33.4,31.3,29.88,ESE,113,0.0,2.0,92,0.03,,,0.46,meteohub,2013-12-14 03:55:00,
2013-12-13 22:00:00,33.4,31.3,29.88,SE,135,0.0,2.0,92,0.03,,,0.46,meteohub,2013-12-14 04:00:00,
2013-12-13 22:05:00,33.4,31.3,29.88,NE,45,0.0,2.0,92,0.03,,,0.49,meteohub,2013-12-14 04:05:00,
2013-12-13 22:10:00,33.4,31.3,29.88,ENE,68,0.0,4.0,92,0.06,,,0.49,meteohub,2013-12-14 04:10:00,
2013-12-13 22:15:00,33.4,31.3,29.88,SSE,158,0.0,4.0,92,0.06,,,0.49,meteohub,2013-12-14 04:15:00,
2013-12-13 22:20:00,33.4,31.3,29.88,SE,135,0.0,4.0,92,0.06,,,0.49,meteohub,2013-12-14 04:20:00,
2013-12-13 22:25:00,33.4,31.3,29.88,SE,135,0.0,4.0,92,0.03,,,0.49,meteohub,2013-12-14 04:25:00,
2013-12-13 22:30:00,33.4,31.3,29.88,NNE,23,0.0,4.0,92,0.03,,,0.49,meteohub,2013-12-14 04:30:00,
2013-12-13 22:35:00,33.4,31.3,29.88,ENE,68,0.0,4.0,92,0.03,,,0.49,meteohub,2013-12-14 04:35:00,
2013-12-13 22:40:00,33.4,31.3,29.88,ESE,113,2.0,2.0,92,0.03,,,0.49,meteohub,2013-12-14 04:40:00,
2013-12-13 22:45:00,33.4,31.3,29.88,SSE,158,0.0,2.0,92,0.03,,,0.49,meteohub,2013-12-14 04:45:00,
2013-12-13 22:50:00,33.4,31.3,29.88,ESE,113,1.0,2.0,92,0.06,,,0.52,meteohub,2013-12-14 04:50:00,
2013-12-13 22:55:00,33.6,31.5,29.88,ESE,113,0.0,2.0,92,0.06,,,0.52,meteohub,2013-12-14 04:55:00,
2013-12-13 23:00:00,33.4,31.3,29.87,South,180,0.0,1.0,92,0.06,,,0.52,meteohub,2013-12-14 05:00:00,
2013-12-13 23:01:00,33.4,31.3,29.87,South,180,0.0,1.0,92,0.06,,,0.52,meteohub,2013-12-14 05:01:00,
2013-12-13 23:02:00,33.4,31.3,29.87,SE,135,0.0,1.0,92,0.06,,,0.52,meteohub,2013-12-14 05:02:00,
2013-12-13 23:07:00,33.4,31.3,29.87,SSE,158,2.0,2.0,92,0.03,,,0.52,meteohub,2013-12-14 05:07:00,
2013-12-13 23:12:00,33.4,31.3,29.87,ESE,113,0.0,2.0,92,0.03,,,0.52,meteohub,2013-12-14 05:12:00,
2013-12-13 23:17:00,33.4,31.3,29.87,SE,135,0.0,2.0,92,0.03,,,0.52,meteohub,2013-12-14 05:17:00,
2013-12-13 23:22:00,33.4,31.3,29.87,ESE,113,0.0,2.0,92,0.06,,,0.54,meteohub,2013-12-14 05:22:00,
2013-12-13 23:27:00,33.4,31.3,29.87,ESE,113,0.0,0.0,92,0.06,,,0.54,meteohub,2013-12-14 05:27:00,
2013-12-13 23:32:00,33.4,31.3,29.87,ESE,113,2.0,0.0,92,0.06,,,0.54,meteohub,2013-12-14 05:32:00,
2013-12-13 23:37:00,33.6,31.5,29.87,SSE,158,0.0,3.0,92,0.06,,,0.54,meteohub,2013-12-14 05:37:00,
2013-12-13 23:42:00,33.4,31.3,29.87,South,180,0.0,3.0,92,0.06,,,0.54,meteohub,2013-12-14 05:42:00,
2013-12-13 23:47:00,33.3,31.1,29.87,ESE,113,0.0,2.0,92,0.03,,,0.54,meteohub,2013-12-14 05:47:00,
2013-12-13 23:52:00,33.3,31.1,29.87,ESE,113,0.0,0.0,92,0.03,,,0.54,meteohub,2013-12-14 05:52:00,
2013-12-13 23:57:00,33.1,31.1,29.87,SSE,158,0.0,0.0,92,0.03,,,0.54,meteohub,2013-12-14 05:57:00,